Time;durP1;ratioP1;P1;durP2;ratioP2;P2;SDS_P1;SDS_P2;PMS_P1;PMS_P2;Temp;Humidity;BMP_temperature;BMP_pressure;BME280_temperature;BME280_humidity;BME280_pressure;Samples;Min_cycle;Max_cycle;Signal;HPM_P1;HPM_P2
2022/03/26 00:00:52;;;;;;;67.70;46.27;;;12.20;52.60;;;15.30;41.16;103076.31;5015552;28;20714;-50
2022/03/26 00:03:20;;;;;;;71.53;46.80;;;12.20;52.50;;;15.30;41.29;103075.47;5015743;28;20202;-51
2022/03/26 00:05:48;;;;;;;75.00;50.20;;;12.20;53.00;;;15.27;41.19;103073.13;5013999;28;20222;-49
2022/03/26 00:08:15;;;;;;;70.83;47.30;;;12.20;52.90;;;15.26;41.32;103074.13;5015378;28;20223;-48
2022/03/26 00:10:42;;;;;;;71.00;47.93;;;12.10;52.80;;;15.26;41.26;103068.81;5015357;28;20196;-50
2022/03/26 00:13:09;;;;;;;72.53;47.53;;;12.10;52.70;;;15.24;41.10;103073.41;5015348;28;20199;-49
2022/03/26 00:15:39;;;;;;;72.43;46.67;;;12.10;52.70;;;15.23;41.52;103074.41;5015122;28;20187;-50
2022/03/26 00:18:07;;;;;;;73.20;48.03;;;12.10;52.90;;;15.22;41.47;103072.72;5015029;28;20219;-51
2022/03/26 00:20:34;;;;;;;72.87;45.83;;;12.10;53.10;;;15.19;41.55;103081.00;5014705;28;20199;-49
2022/03/26 00:23:02;;;;;;;74.43;46.77;;;12.10;53.10;;;15.19;41.71;103083.66;5013812;28;20209;-50
2022/03/26 00:25:29;;;;;;;73.50;48.40;;;12.00;53.40;;;15.16;41.69;103074.16;5014781;28;20187;-49
2022/03/26 00:27:57;;;;;;;68.13;46.03;;;12.00;53.30;;;15.15;41.70;103071.63;5014479;28;20219;-48
2022/03/26 00:30:24;;;;;;;73.67;47.10;;;12.00;53.20;;;15.13;41.57;103068.31;5014919;28;20192;-49
2022/03/26 00:32:53;;;;;;;74.83;48.97;;;12.00;52.70;;;15.11;41.75;103064.97;5015035;28;20546;-51
2022/03/26 00:35:20;;;;;;;72.83;47.87;;;12.00;53.50;;;15.09;41.85;103072.22;5015562;28;20214;-50
2022/03/26 00:37:48;;;;;;;72.63;47.47;;;12.00;53.30;;;15.06;41.59;103068.06;5015079;28;20223;-50
2022/03/26 00:40:15;;;;;;;80.07;50.30;;;12.00;53.20;;;15.04;41.62;103063.88;4997256;28;20548;-48
2022/03/26 00:42:42;;;;;;;76.13;49.30;;;11.90;53.40;;;15.03;41.74;103068.34;4994920;28;20657;-50
2022/03/26 00:45:10;;;;;;;72.77;48.70;;;11.90;53.50;;;15.01;41.96;103069.47;4994883;28;20195;-49
2022/03/26 00:47:38;;;;;;;73.27;48.57;;;11.90;53.80;;;14.97;42.00;103068.09;4994771;28;20208;-48
2022/03/26 00:50:08;;;;;;;69.03;45.67;;;11.80;53.40;;;14.94;42.09;103063.91;4994956;28;20199;-51
2022/03/26 00:52:35;;;;;;;71.77;47.73;;;11.80;53.70;;;14.91;42.11;103070.34;4995100;28;20211;-47
2022/03/26 00:55:04;;;;;;;77.80;49.87;;;11.80;53.60;;;14.86;42.35;103062.00;4996147;28;20271;-49
2022/03/26 00:57:31;;;;;;;71.60;47.57;;;11.80;54.10;;;14.85;42.25;103060.34;4997140;28;20547;-50
2022/03/26 00:59:59;;;;;;;72.63;48.13;;;11.80;54.20;;;14.82;42.32;103057.13;4995862;28;20196;-50
2022/03/26 01:02:26;;;;;;;72.87;48.03;;;11.70;54.20;;;14.79;42.16;103060.06;4994674;28;20219;-49
2022/03/26 01:04:54;;;;;;;71.63;45.43;;;11.70;53.90;;;14.74;42.66;103052.53;4994973;28;20668;-50
2022/03/26 01:07:22;;;;;;;76.43;49.47;;;11.70;53.90;;;14.72;42.58;103054.50;4995549;28;20218;-48
2022/03/26 01:09:50;;;;;;;84.70;50.50;;;11.70;54.50;;;14.70;42.59;103061.78;4997344;28;20192;-49
2022/03/26 01:12:17;;;;;;;72.30;49.23;;;11.60;54.80;;;14.69;42.79;103068.03;4996813;28;20554;-49
2022/03/26 01:14:45;;;;;;;79.30;50.07;;;11.60;55.10;;;14.66;42.96;103059.56;5008344;28;20326;-48
2022/03/26 01:17:12;;;;;;;84.27;52.90;;;11.50;55.00;;;14.64;43.00;103050.91;5016570;28;20293;-49
2022/03/26 01:19:39;;;;;;;70.70;48.97;;;11.50;55.10;;;14.62;43.02;103047.56;5032312;28;20206;-53
2022/03/26 01:22:07;;;;;;;76.90;50.73;;;11.50;54.90;;;14.58;43.08;103051.47;5026865;28;20283;-52
2022/03/26 01:24:36;;;;;;;79.03;50.67;;;11.50;55.00;;;14.56;43.26;103048.97;5028594;28;20250;-51
2022/03/26 01:27:06;;;;;;;78.87;52.10;;;11.40;55.30;;;14.55;43.31;103047.28;5029662;28;20227;-52
2022/03/26 01:29:38;;;;;;;81.97;52.83;;;11.40;56.10;;;14.54;43.38;103037.69;5023403;28;20191;-49
2022/03/26 01:32:08;;;;;;;74.37;48.70;;;11.40;55.40;;;14.55;43.33;103041.16;4998546;28;20274;-48
2022/03/26 01:34:37;;;;;;;81.97;51.07;;;11.40;55.50;;;14.56;43.35;103042.84;5002711;28;20200;-49
2022/03/26 01:37:05;;;;;;;78.40;52.17;;;11.40;55.40;;;14.55;43.16;103044.63;5002378;28;20220;-49
2022/03/26 01:39:32;;;;;;;80.40;51.63;;;11.40;55.40;;;14.54;43.30;103035.03;5004532;28;20250;-51
2022/03/26 01:42:07;;;;;;;77.80;50.87;;;11.40;55.50;;;14.50;43.33;103032.81;5003601;28;20268;-51
2022/03/26 01:44:36;;;;;;;76.33;50.13;;;11.40;55.50;;;14.48;43.52;103030.28;5009150;28;20206;-50
2022/03/26 01:47:05;;;;;;;77.67;51.60;;;11.30;55.60;;;14.45;43.32;103025.31;5023081;28;20222;-51
2022/03/26 01:49:32;;;;;;;80.27;49.40;;;11.40;55.50;;;14.44;43.33;103022.78;5029051;28;20191;-49
2022/03/26 01:52:02;;;;;;;73.67;49.60;;;11.30;55.20;;;14.39;43.27;103015.25;5027859;28;20522;-50
2022/03/26 01:54:30;;;;;;;83.93;53.20;;;11.30;55.00;;;14.35;42.98;103019.19;5030247;28;20199;-50
2022/03/26 01:56:58;;;;;;;75.27;50.93;;;11.30;54.90;;;14.31;43.49;103017.78;5030980;28;20223;-51
2022/03/26 01:59:27;;;;;;;77.00;51.27;;;11.30;55.10;;;14.28;43.45;103023.34;5029670;28;20263;-51
2022/03/26 02:01:54;;;;;;;77.13;51.53;;;11.20;55.10;;;14.27;43.55;103011.91;5027808;28;20187;-51
2022/03/26 02:04:22;;;;;;;79.47;50.57;;;11.20;55.40;;;14.26;43.69;103020.00;5029347;28;20218;-51
2022/03/26 02:06:49;;;;;;;79.80;52.07;;;11.20;55.30;;;14.24;43.61;103017.47;5029197;28;20255;-51
2022/03/26 02:09:17;;;;;;;77.40;47.30;;;11.20;55.60;;;14.23;43.65;103009.69;5025175;28;20213;-51
2022/03/26 02:11:46;;;;;;;79.93;50.20;;;11.20;55.40;;;14.23;43.55;103009.69;5026322;28;20195;-50
2022/03/26 02:14:15;;;;;;;78.87;51.27;;;11.10;55.70;;;14.22;43.64;103010.66;5027890;28;20246;-52
2022/03/26 02:16:44;;;;;;;81.27;51.50;;;11.10;55.80;;;14.20;43.62;103009.97;5028379;28;20231;-52
2022/03/26 02:19:12;;;;;;;81.37;53.97;;;11.10;55.80;;;14.20;43.53;103009.97;5028420;28;20199;-50
2022/03/26 02:21:41;;;;;;;81.43;51.80;;;11.10;55.70;;;14.18;43.84;103006.63;5025651;28;20252;-52
2022/03/26 02:24:09;;;;;;;85.37;52.90;;;11.10;55.80;;;14.20;43.86;103009.97;5028143;28;20198;-51
2022/03/26 02:26:37;;;;;;;77.20;49.77;;;11.10;56.10;;;14.18;43.67;103004.81;5030358;28;20215;-52
2022/03/26 02:29:07;;;;;;;76.30;50.30;;;11.10;55.70;;;14.17;43.66;103005.78;5027468;28;20235;-53
2022/03/26 02:31:35;;;;;;;79.73;50.57;;;11.10;55.80;;;14.16;43.66;103003.28;5025247;28;20202;-51
2022/03/26 02:34:03;;;;;;;74.10;49.20;;;11.00;55.60;;;14.15;43.62;103006.91;5020373;28;20191;-50
2022/03/26 02:36:30;;;;;;;74.47;49.53;;;11.00;55.40;;;14.13;43.46;103000.91;5000711;28;20200;-51
2022/03/26 02:38:59;;;;;;;74.03;48.63;;;11.00;55.60;;;14.11;43.68;103006.38;5006542;28;20593;-51
2022/03/26 02:41:27;;;;;;;75.93;51.50;;;11.00;55.40;;;14.08;43.62;102998.69;5007732;28;20202;-51
2022/03/26 02:43:54;;;;;;;69.83;47.97;;;11.00;55.40;;;14.06;43.68;102997.16;5007207;28;20223;-51
2022/03/26 02:46:21;;;;;;;73.97;48.00;;;11.00;55.50;;;14.06;43.73;102994.50;5007351;28;20195;-51
2022/03/26 02:48:49;;;;;;;78.73;50.03;;;11.00;55.70;;;14.03;43.72;102992.97;5008395;28;20223;-52
2022/03/26 02:51:17;;;;;;;81.13;52.33;;;10.90;55.60;;;14.02;43.92;102991.34;5009474;28;20199;-51
2022/03/26 02:53:44;;;;;;;78.40;50.17;;;10.90;55.80;;;14.01;44.14;102989.66;5007174;28;20211;-52
2022/03/26 02:56:12;;;;;;;75.53;49.03;;;10.90;55.80;;;14.02;44.00;102979.91;5006110;28;20204;-52
2022/03/26 02:58:40;;;;;;;69.87;48.17;;;10.90;55.80;;;14.03;44.05;102976.25;5005569;28;20211;-55
2022/03/26 03:01:07;;;;;;;74.93;49.97;;;10.90;55.80;;;14.02;44.06;102986.03;5000867;28;20685;-51
2022/03/26 03:03:34;;;;;;;73.07;47.80;;;10.90;56.40;;;14.02;44.07;102979.91;5002280;28;20232;-52
2022/03/26 03:06:02;;;;;;;75.93;47.87;;;10.90;55.90;;;14.01;44.01;102978.22;5007547;28;20200;-51
2022/03/26 03:08:29;;;;;;;71.23;46.20;;;10.90;55.90;;;14.02;43.91;102979.91;5015404;28;20221;-52
2022/03/26 03:10:56;;;;;;;80.37;49.50;;;10.90;55.80;;;14.01;43.89;102979.06;5024773;28;20191;-51
2022/03/26 03:13:25;;;;;;;76.93;49.93;;;10.90;56.00;;;14.02;43.99;102985.19;5025058;28;20192;-51
2022/03/26 03:15:52;;;;;;;86.73;50.63;;;10.90;55.90;;;14.01;44.06;102978.22;5026594;28;20194;-49
2022/03/26 03:18:20;;;;;;;74.83;48.77;;;10.90;56.00;;;14.03;44.28;102981.56;5026511;28;20545;-50
2022/03/26 03:20:47;;;;;;;71.87;46.63;;;10.90;56.20;;;14.04;44.16;102977.94;5026952;28;20187;-51
2022/03/26 03:23:14;;;;;;;66.20;44.57;;;10.90;56.40;;;14.06;43.99;102978.63;5025881;28;20221;-51
2022/03/26 03:25:41;;;;;;;74.80;48.17;;;11.00;56.00;;;14.08;44.11;102987.25;5011148;28;20210;-52
2022/03/26 03:28:09;;;;;;;81.53;50.47;;;11.00;56.20;;;14.09;44.15;102981.84;5007605;28;20748;-52
2022/03/26 03:30:37;;;;;;;73.23;48.30;;;11.00;56.20;;;14.08;44.22;102985.47;5011825;28;20271;-50
2022/03/26 03:33:05;;;;;;;71.17;46.03;;;11.00;56.10;;;14.07;43.89;102989.06;5003915;28;20192;-51
2022/03/26 03:35:32;;;;;;;80.77;49.80;;;11.00;55.80;;;14.07;43.96;102985.63;5005321;28;20192;-53
2022/03/26 03:38:00;;;;;;;79.67;49.47;;;11.00;56.00;;;14.06;43.87;102981.28;5005281;28;20242;-52
2022/03/26 03:40:27;;;;;;;74.23;47.10;;;10.90;55.90;;;14.05;43.95;102984.88;5008068;28;20196;-51
2022/03/26 03:42:54;;;;;;;74.70;48.03;;;10.90;56.00;;;14.04;44.02;102983.25;5026613;28;20225;-52
2022/03/26 03:45:22;;;;;;;73.93;49.37;;;10.90;55.90;;;14.01;43.97;102979.06;5028234;28;20227;-49
2022/03/26 03:47:51;;;;;;;74.03;48.57;;;10.90;56.00;;;13.97;44.04;102976.84;5027077;28;20290;-50
2022/03/26 03:50:18;;;;;;;72.67;47.40;;;10.90;56.00;;;13.96;43.94;102980.44;5027314;28;20226;-52
2022/03/26 03:52:46;;;;;;;82.60;49.33;;;10.90;56.00;;;13.93;44.07;102975.47;5025431;28;20266;-47
2022/03/26 03:55:13;;;;;;;71.17;46.80;;;10.80;56.00;;;13.89;44.17;102977.53;5025864;28;20202;-52
2022/03/26 03:57:42;;;;;;;78.30;48.23;;;10.80;56.00;;;13.89;44.21;102979.34;5024583;28;20231;-50
2022/03/26 04:00:11;;;;;;;68.57;46.50;;;10.80;56.10;;;13.86;44.17;102977.81;5026372;28;20206;-52
2022/03/26 04:02:38;;;;;;;76.70;46.73;;;10.80;56.10;;;13.83;44.15;102980.75;5025934;28;20191;-51
2022/03/26 04:05:13;;;;;;;72.10;46.80;;;10.70;56.00;;;13.79;44.13;102978.50;5025237;28;20199;-50
2022/03/26 04:07:44;;;;;;;76.97;48.60;;;10.70;55.90;;;13.76;44.06;102978.81;5025352;28;20213;-48
2022/03/26 04:10:12;;;;;;;75.47;46.20;;;10.70;56.20;;;13.74;44.41;102976.28;5025474;28;20282;-51
2022/03/26 04:12:42;;;;;;;76.97;46.57;;;10.60;56.30;;;13.72;44.24;102977.41;5025446;28;20183;-51
2022/03/26 04:15:13;;;;;;;78.43;47.77;;;10.60;56.50;;;13.69;44.41;102980.34;5013318;28;20196;-51
2022/03/26 04:17:41;;;;;;;74.33;47.97;;;10.60;56.20;;;13.66;44.25;102980.63;5004766;28;20224;-52
2022/03/26 04:20:10;;;;;;;72.80;45.57;;;10.50;56.30;;;13.63;44.39;102986.19;5006306;28;20226;-50
2022/03/26 04:22:39;;;;;;;67.87;40.60;;;10.50;56.20;;;13.60;44.42;102989.94;5005988;28;20200;-53
2022/03/26 04:25:09;;;;;;;64.00;42.00;;;10.50;56.10;;;13.55;44.20;103003.56;5006039;28;20206;-47
2022/03/26 04:27:41;;;;;;;64.97;41.83;;;10.50;56.10;;;13.53;44.52;102994.94;5003611;28;20326;-50
2022/03/26 04:30:10;;;;;;;67.73;43.97;;;10.50;56.20;;;13.50;44.57;102995.22;5002858;28;20204;-52
2022/03/26 04:32:37;;;;;;;70.83;43.47;;;10.40;56.30;;;13.47;44.67;103006.09;5022710;28;20191;-51
2022/03/26 04:35:06;;;;;;;69.53;43.10;;;10.40;56.60;;;13.47;44.55;103006.09;5022910;28;20195;-52
2022/03/26 04:37:35;;;;;;;71.50;44.97;;;10.40;56.40;;;13.46;44.52;103009.69;5021002;28;20211;-51
2022/03/26 04:40:05;;;;;;;67.93;42.53;;;10.40;56.40;;;13.47;44.61;103013.19;5022212;28;20518;-48
2022/03/26 04:42:32;;;;;;;69.53;43.40;;;10.40;56.70;;;13.46;44.53;103006.22;5022025;28;20202;-51
2022/03/26 04:45:00;;;;;;;62.47;40.53;;;10.40;56.50;;;13.44;44.80;103011.66;5024280;28;20195;-49
2022/03/26 04:47:27;;;;;;;71.37;43.37;;;10.40;56.40;;;13.45;44.91;103017.78;5012437;28;20208;-49
2022/03/26 04:49:55;;;;;;;74.33;43.67;;;10.40;56.70;;;13.46;44.63;103015.00;4996348;28;20192;-49
2022/03/26 04:52:22;;;;;;;71.20;41.73;;;10.40;56.50;;;13.46;44.61;103008.84;4996033;28;20192;-50
2022/03/26 04:54:50;;;;;;;66.87;41.00;;;10.40;56.20;;;13.45;44.96;103002.72;4995788;28;20192;-48
2022/03/26 04:57:18;;;;;;;65.00;40.87;;;10.40;56.30;;;13.43;44.27;103007.31;4996607;28;20211;-48
2022/03/26 04:59:45;;;;;;;64.57;42.43;;;10.40;56.30;;;13.43;44.38;103002.03;4996389;28;20208;-48
2022/03/26 05:02:13;;;;;;;62.17;40.63;;;10.30;56.20;;;13.43;44.41;103003.88;4996012;28;20192;-51
2022/03/26 05:04:41;;;;;;;74.37;44.23;;;10.30;56.30;;;13.42;44.81;103004.81;4996452;28;20196;-50
2022/03/26 05:09:55;;;;;;;66.50;41.97;;;10.30;56.30;;;13.38;44.69;103011.38;4994802;28;20207;-51
2022/03/26 05:12:23;;;;;;;72.47;42.50;;;10.30;56.50;;;13.37;44.94;103013.19;4995034;28;20212;-48
2022/03/26 05:14:50;;;;;;;67.03;44.63;;;10.30;56.70;;;13.37;44.67;103012.34;4994952;28;20568;-49
2022/03/26 05:17:17;;;;;;;66.73;42.70;;;10.30;56.90;;;13.37;44.64;103004.41;4994284;28;20580;-48
2022/03/26 05:19:45;;;;;;;71.17;44.73;;;10.30;56.90;;;13.37;44.74;103015.81;4993387;28;20690;-48
2022/03/26 05:22:12;;;;;;;70.60;42.60;;;10.30;57.00;;;13.36;45.04;103013.31;4995567;28;20561;-47
2022/03/26 05:24:39;;;;;;;63.33;42.10;;;10.30;57.10;;;13.36;44.72;103008.03;4994949;28;20199;-51
2022/03/26 05:27:08;;;;;;;62.77;40.47;;;10.20;57.10;;;13.34;44.85;103020.53;4993738;28;20220;-50
2022/03/26 05:29:35;;;;;;;69.10;41.93;;;10.20;57.00;;;13.34;44.87;103021.38;4994695;28;20590;-48
2022/03/26 05:32:04;;;;;;;64.33;41.50;;;10.20;56.90;;;13.33;44.85;103018.88;4994801;28;20196;-49
2022/03/26 05:34:31;;;;;;;62.93;41.43;;;10.20;56.80;;;13.31;44.80;103021.63;4994468;28;20191;-48
2022/03/26 05:36:59;;;;;;;64.93;40.97;;;10.20;56.80;;;13.31;44.73;103015.53;4996001;28;20215;-50
2022/03/26 05:39:26;;;;;;;60.67;41.70;;;10.20;56.90;;;13.32;44.89;103022.47;5017526;28;20553;-47
2022/03/26 05:41:53;;;;;;;64.30;41.13;;;10.20;57.00;;;13.34;44.78;103025.81;5012235;28;20222;-48
2022/03/26 05:44:22;;;;;;;71.27;45.37;;;10.20;56.90;;;13.35;44.70;103022.22;5013804;28;20202;-48
2022/03/26 05:46:49;;;;;;;72.40;43.80;;;10.20;57.20;;;13.36;44.90;103029.19;5013221;28;20211;-50
2022/03/26 05:49:17;;;;;;;67.33;43.13;;;10.20;57.20;;;13.37;44.93;103031.69;5013342;28;20199;-47
2022/03/26 05:51:44;;;;;;;65.27;41.77;;;10.30;57.10;;;13.37;44.92;103029.03;5013923;28;20206;-48
2022/03/26 05:54:12;;;;;;;71.80;42.97;;;10.30;57.10;;;13.40;45.06;103033.22;5011580;28;20197;-49
2022/03/26 05:56:39;;;;;;;73.03;45.40;;;10.20;57.20;;;13.41;44.76;103029.59;4993379;28;20690;-49
2022/03/26 05:59:10;;;;;;;62.83;40.73;;;10.20;57.30;;;13.41;44.65;103022.50;4993741;28;20287;-47
2022/03/26 06:01:39;;;;;;;70.77;42.43;;;10.30;57.00;;;13.39;45.01;103024.44;4993874;28;20189;-48
2022/03/26 06:04:08;;;;;;;67.57;42.33;;;10.30;56.90;;;13.37;44.89;103031.69;5008700;28;20227;-49
2022/03/26 06:06:35;;;;;;;69.27;42.13;;;10.30;56.80;;;13.36;45.15;103023.91;4993520;28;20238;-49
2022/03/26 06:09:03;;;;;;;65.97;42.90;;;10.30;56.80;;;13.34;44.87;103026.66;4993713;28;20190;-48
2022/03/26 06:11:30;;;;;;;69.83;44.30;;;10.20;56.90;;;13.30;44.81;103029.72;4994728;28;20198;-48
2022/03/26 06:13:58;;;;;;;69.00;42.23;;;10.20;57.00;;;13.25;45.18;103032.78;4993896;28;20674;-52
2022/03/26 06:16:25;;;;;;;61.83;41.43;;;10.20;56.80;;;13.23;45.34;103026.78;4993562;28;20199;-48
2022/03/26 06:18:54;;;;;;;67.77;40.90;;;10.20;56.90;;;13.25;45.43;103027.47;4994326;28;20216;-49
2022/03/26 06:21:21;;;;;;;63.93;41.23;;;10.20;56.90;;;13.25;45.14;103038.06;4993640;28;20218;-48
2022/03/26 06:23:48;;;;;;;67.93;39.97;;;10.20;57.00;;;13.29;45.35;103047.38;4993597;28;20202;-48
2022/03/26 06:26:16;;;;;;;68.63;41.40;;;10.20;57.00;;;13.32;45.19;103044.47;4993465;28;20203;-50
2022/03/26 06:28:43;;;;;;;59.57;39.43;;;10.20;57.20;;;13.39;44.99;103052.72;4994724;28;20196;-49
2022/03/26 06:31:12;;;;;;;64.87;42.27;;;10.20;57.30;;;13.45;45.19;103053.00;4993749;28;20202;-49
2022/03/26 06:33:40;;;;;;;65.17;40.53;;;10.30;57.40;;;13.52;44.90;103058.59;4994368;28;20215;-48
2022/03/26 06:36:08;;;;;;;68.03;41.60;;;10.30;57.90;;;13.62;44.88;103061.25;4993819;28;20199;-49
2022/03/26 06:38:38;;;;;;;62.73;40.87;;;10.40;57.50;;;13.70;44.82;103053.44;4996164;28;20319;-50
2022/03/26 06:41:09;;;;;;;69.57;44.27;;;10.50;57.40;;;13.79;44.90;103068.50;4999051;28;20277;-49
2022/03/26 06:43:37;;;;;;;61.50;40.70;;;10.60;57.40;;;13.88;44.74;103062.41;4997996;28;20196;-47
2022/03/26 06:46:04;;;;;;;66.27;43.13;;;10.60;57.10;;;13.96;44.56;103062.53;5014650;28;20201;-49
2022/03/26 06:48:33;;;;;;;64.47;43.10;;;10.70;56.90;;;14.04;44.42;103070.63;5017193;28;20702;-48
2022/03/26 06:51:01;;;;;;;70.53;43.90;;;10.80;56.80;;;14.09;44.29;103071.03;5017033;28;20627;-49
2022/03/26 06:53:33;;;;;;;62.60;42.00;;;10.80;56.50;;;14.12;44.20;103070.78;5017174;28;20191;-49
2022/03/26 06:56:01;;;;;;;64.17;40.90;;;10.90;56.40;;;14.18;44.16;103064.91;5016940;28;20188;-50
2022/03/26 06:58:28;;;;;;;64.60;39.80;;;11.00;56.20;;;14.23;43.93;103067.97;5015823;28;20237;-49
2022/03/26 07:00:57;;;;;;;67.40;42.03;;;11.10;56.30;;;14.29;44.09;103062.09;5015215;28;20202;-50
2022/03/26 07:03:25;;;;;;;63.33;41.07;;;11.10;56.10;;;14.40;43.85;103071.75;5016700;28;20650;-50
2022/03/26 07:05:52;;;;;;;65.97;41.20;;;11.20;56.00;;;14.50;43.56;103065.44;5016760;28;20254;-49
2022/03/26 07:08:19;;;;;;;67.73;43.70;;;11.30;55.90;;;14.62;43.62;103064.28;5016218;28;20215;-49
2022/03/26 07:10:48;;;;;;;65.63;41.43;;;11.40;55.90;;;14.83;43.22;103061.47;5016574;28;20191;-48
2022/03/26 07:13:16;;;;;;;71.07;44.70;;;11.50;55.80;;;15.16;43.21;103063.56;5016598;28;20646;-49
2022/03/26 07:15:43;;;;;;;63.97;41.03;;;11.70;55.80;;;15.60;42.66;103069.88;5016506;28;20285;-51
2022/03/26 07:18:15;;;;;;;59.20;41.50;;;11.90;55.60;;;16.08;42.05;103067.69;5014150;28;20219;-49
2022/03/26 07:20:42;;;;;;;64.43;43.47;;;12.20;55.70;;;16.66;41.21;103065.31;5016327;28;20286;-49
2022/03/26 07:23:10;;;;;;;68.80;45.33;;;12.60;54.50;;;17.24;40.36;103064.59;5016179;28;20222;-50
2022/03/26 07:25:39;;;;;;;61.67;41.33;;;13.00;53.60;;;17.82;39.41;103057.47;5016512;28;20298;-48
2022/03/26 07:28:08;;;;;;;62.37;44.70;;;13.50;52.90;;;18.43;38.07;103062.28;5015857;28;20221;-49
2022/03/26 07:30:35;;;;;;;56.57;39.43;;;13.90;52.00;;;19.07;37.29;103065.81;5016011;28;20242;-49
2022/03/26 07:33:03;;;;;;;61.77;44.50;;;14.50;51.00;;;19.72;36.33;103066.34;5015876;28;20207;-51
2022/03/26 07:35:31;;;;;;;59.20;43.10;;;15.10;49.60;;;20.40;35.38;103066.31;5013556;28;20191;-50
2022/03/26 07:37:58;;;;;;;63.87;43.20;;;15.60;48.60;;;21.04;34.07;103065.59;5015549;28;20222;-49
2022/03/26 07:40:26;;;;;;;63.87;43.53;;;16.20;46.70;;;21.69;32.91;103070.94;5015860;28;20222;-50
2022/03/26 07:42:53;;;;;;;58.87;42.50;;;16.70;45.20;;;22.28;31.75;103066.16;5015974;28;20195;-47
2022/03/26 07:45:22;;;;;;;63.50;44.53;;;17.20;43.40;;;22.81;30.41;103070.91;5014943;28;20195;-50
2022/03/26 07:47:50;;;;;;;57.83;43.17;;;17.70;42.30;;;23.33;29.62;103067.59;5015426;28;20254;-49
2022/03/26 07:50:22;;;;;;;55.83;42.03;;;18.30;41.30;;;23.79;28.93;103081.22;5015884;28;20195;-50
2022/03/26 07:52:49;;;;;;;55.90;42.07;;;18.70;40.80;;;24.16;28.18;103083.34;5014153;28;20199;-52
2022/03/26 07:55:17;;;;;;;54.83;41.50;;;19.10;39.00;;;24.48;27.67;103084.38;5015421;28;20195;-50
2022/03/26 07:57:44;;;;;;;52.23;40.63;;;19.50;38.30;;;24.79;27.43;103081.84;5007257;28;20713;-50
2022/03/26 08:00:12;;;;;;;57.97;42.47;;;19.90;37.80;;;25.18;27.01;103086.28;4996725;28;20211;-50
2022/03/26 08:02:41;;;;;;;53.63;41.07;;;20.20;37.30;;;25.57;26.78;103089.84;4996249;28;20203;-50
2022/03/26 08:05:09;;;;;;;52.33;41.43;;;20.50;36.20;;;25.92;25.78;103094.59;4996301;28;20222;-49
2022/03/26 08:07:36;;;;;;;54.07;41.57;;;20.80;36.10;;;26.28;25.41;103088.53;4995339;28;20298;-49
2022/03/26 08:10:04;;;;;;;55.63;42.23;;;21.20;35.40;;;26.56;25.21;103083.50;4998308;28;20192;-49
2022/03/26 08:12:32;;;;;;;56.43;43.57;;;21.40;34.80;;;26.73;25.08;103084.56;4996760;28;20188;-50
2022/03/26 08:14:59;;;;;;;52.23;41.37;;;21.70;34.00;;;26.95;24.28;103089.56;4996247;28;20283;-50
2022/03/26 08:17:29;;;;;;;55.53;43.03;;;21.90;33.70;;;27.21;24.02;103086.53;4996710;28;20223;-50
2022/03/26 08:19:57;;;;;;;48.07;39.13;;;22.10;32.70;;;27.43;23.87;103082.31;4997928;28;20223;-50
2022/03/26 08:22:25;;;;;;;46.60;37.87;;;22.30;33.40;;;27.69;23.90;103092.78;4996141;28;20199;-50
2022/03/26 08:24:53;;;;;;;56.10;43.27;;;22.50;32.50;;;28.00;23.33;103078.16;4997222;28;20333;-50
2022/03/26 08:27:22;;;;;;;45.37;37.07;;;22.70;32.20;;;28.39;22.88;103077.47;4995523;28;20223;-50
2022/03/26 08:29:51;;;;;;;49.67;39.63;;;22.90;32.20;;;28.63;22.57;103079.13;4995258;28;20267;-51
2022/03/26 08:32:19;;;;;;;52.30;39.87;;;23.10;31.70;;;28.91;22.32;103083.78;4995541;28;20199;-53
2022/03/26 08:34:47;;;;;;;54.20;42.37;;;23.40;31.20;;;29.24;21.95;103086.69;4995215;28;20243;-50
2022/03/26 08:37:15;;;;;;;48.07;37.50;;;23.60;30.70;;;29.49;21.66;103086.34;4994371;28;20307;-51
2022/03/26 08:39:43;;;;;;;40.33;33.97;;;23.80;31.00;;;29.70;21.46;103084.81;4995010;28;20208;-53
2022/03/26 08:42:11;;;;;;;42.07;35.97;;;24.00;30.60;;;29.92;21.78;103093.94;4997168;28;20720;-50
2022/03/26 08:44:38;;;;;;;45.27;36.57;;;24.30;30.80;;;30.14;20.93;103094.84;4994301;28;20196;-51
2022/03/26 08:47:06;;;;;;;44.07;37.67;;;24.50;30.00;;;30.31;20.74;103092.94;4994874;28;20238;-50
2022/03/26 08:49:34;;;;;;;40.60;33.97;;;24.70;29.90;;;30.46;20.81;103090.47;4994719;28;20245;-50
2022/03/26 08:52:02;;;;;;;40.07;33.20;;;25.00;29.80;;;30.64;20.55;103082.03;4994841;28;20198;-50
2022/03/26 08:54:30;;;;;;;46.67;35.00;;;25.10;29.50;;;30.81;20.89;103088.25;4995454;28;20188;-51
2022/03/26 08:56:58;;;;;;;41.73;34.53;;;25.30;29.10;;;31.02;20.54;103099.44;4995240;28;20497;-50
2022/03/26 08:59:25;;;;;;;40.43;35.40;;;25.40;28.90;;;31.18;19.85;103093.91;4996461;28;20211;-51
2022/03/26 09:01:52;;;;;;;38.47;33.33;;;25.50;28.90;;;31.39;20.42;103094.94;4993852;28;20203;-49
2022/03/26 09:04:20;;;;;;;42.67;35.30;;;25.60;29.00;;;31.59;19.50;103097.91;4995196;28;20192;-50
2022/03/26 09:06:48;;;;;;;47.83;36.77;;;25.80;28.70;;;31.73;19.64;103084.69;4994647;28;20226;-52
2022/03/26 09:09:16;;;;;;;41.57;34.20;;;25.90;28.50;;;31.91;19.39;103087.84;4995148;28;20543;-53
2022/03/26 09:11:44;;;;;;;41.63;36.83;;;26.10;28.60;;;32.11;19.51;103095.41;4995077;28;20196;-51
2022/03/26 09:14:13;;;;;;;38.10;32.93;;;26.30;28.40;;;32.34;19.08;103091.47;4995030;28;20192;-51
2022/03/26 09:16:40;;;;;;;44.43;34.40;;;26.40;28.20;;;32.52;19.06;103088.34;4995396;28;20253;-51
2022/03/26 09:19:07;;;;;;;38.70;33.00;;;26.50;28.10;;;32.68;19.24;103087.34;4995414;28;20741;-53
2022/03/26 09:21:35;;;;;;;38.23;34.13;;;26.60;27.90;;;32.74;19.35;103097.19;4994188;28;20203;-51
2022/03/26 09:24:03;;;;;;;40.27;34.67;;;26.70;27.80;;;32.68;19.16;103093.63;4994451;28;20685;-51
2022/03/26 09:26:30;;;;;;;35.63;31.23;;;26.70;27.70;;;32.72;19.24;103089.28;4994604;28;20592;-49
2022/03/26 09:28:59;;;;;;;35.33;31.37;;;26.90;28.00;;;32.82;19.07;103093.97;4994534;28;20202;-50
2022/03/26 09:31:26;;;;;;;36.90;32.90;;;27.10;27.80;;;32.88;18.82;103092.88;4995538;28;20623;-50
2022/03/26 09:33:53;;;;;;;34.33;30.20;;;27.20;27.50;;;32.97;18.80;103090.47;4994180;28;20282;-49
2022/03/26 09:36:21;;;;;;;31.37;27.80;;;27.20;27.70;;;33.09;19.02;103083.69;4994109;28;20191;-53
2022/03/26 09:38:48;;;;;;;29.43;23.57;;;27.20;27.40;;;33.15;18.68;103093.56;4994621;28;20192;-52
2022/03/26 09:41:16;;;;;;;24.63;22.03;;;27.30;27.50;;;33.31;18.43;103087.03;5009885;28;20725;-50
2022/03/26 09:43:44;;;;;;;21.97;19.43;;;27.40;27.00;;;33.68;18.12;103086.88;4994799;28;20224;-48
2022/03/26 09:46:12;;;;;;;22.63;18.83;;;27.70;26.90;;;33.94;17.93;103087.69;4994209;28;20204;-51
2022/03/26 09:48:41;;;;;;;23.40;19.87;;;27.70;26.70;;;34.21;17.43;103084.69;4995990;28;20227;-49
2022/03/26 09:51:13;;;;;;;21.63;19.20;;;27.90;26.40;;;34.38;17.08;103091.47;4994844;28;20206;-51
2022/03/26 09:53:41;;;;;;;19.37;15.83;;;28.00;26.20;;;34.35;17.43;103085.75;4994643;28;20194;-50
2022/03/26 09:56:10;;;;;;;18.23;16.20;;;28.10;26.20;;;34.51;17.37;103090.91;4994085;28;20236;-51
2022/03/26 09:58:38;;;;;;;19.53;17.57;;;28.30;26.00;;;34.73;16.87;103094.13;4994293;28;20195;-51
2022/03/26 10:01:05;;;;;;;16.87;15.07;;;28.50;25.70;;;34.47;17.25;103095.28;4994430;28;20674;-53
2022/03/26 10:03:38;;;;;;;17.83;15.97;;;28.30;25.30;;;33.98;17.43;103092.34;4994877;28;20262;-52
2022/03/26 10:06:09;;;;;;;13.87;12.37;;;28.30;25.60;;;33.38;17.73;103086.78;5011581;28;20691;-51